BDA weather

L.F. Wade International International Airport
Hamilton, Bermuda

Public forecast

Using degrees Celsius for public forecast. Weather courtesy of forecast.io.

METAR (pilot weather report)

Retrieved 2019/04/18 08:55 UTC (1 hour ago):

TXKF 180855Z 35004KT 9999 SCT025 SCT037 BKN300 19/14 Q1021

TAF (pilot weather forecast)

Retrieved 2019/04/18 06:43 UTC (3 hours ago):

TAF TXKF 180535Z 1806/1906 32005KT 9999 SCT025 BECMG 1810/1812 02010KT FEW010 SCT015 BECMG 1818/1821 07012KT SCT010 BKN015